sensor_id;sensor_type;location;lat;lon;timestamp;pressure;altitude;pressure_sealevel;temperature;humidity
58690;BME280;44470;53.206;-6.106;2023-02-02T00:01:08;102375.75;;;19.27;49.90
58690;BME280;44470;53.206;-6.106;2023-02-02T00:03:33;102375.75;;;19.27;49.67
58690;BME280;44470;53.206;-6.106;2023-02-02T00:05:59;102378.44;;;19.27;49.67
58690;BME280;44470;53.206;-6.106;2023-02-02T00:08:25;102370.41;;;19.29;49.92
58690;BME280;44470;53.206;-6.106;2023-02-02T00:10:51;102380.25;;;19.31;50.10
58690;BME280;44470;53.206;-6.106;2023-02-02T00:13:16;102372.22;;;19.28;49.91
58690;BME280;44470;53.206;-6.106;2023-02-02T00:15:42;102370.41;;;19.27;49.61
58690;BME280;44470;53.206;-6.106;2023-02-02T00:18:10;102374.91;;;19.31;50.03
58690;BME280;44470;53.206;-6.106;2023-02-02T00:20:36;102378.44;;;19.29;49.72
58690;BME280;44470;53.206;-6.106;2023-02-02T00:23:02;102371.28;;;19.28;49.79
58690;BME280;44470;53.206;-6.106;2023-02-02T00:25:29;102380.22;;;19.28;49.77
58690;BME280;44470;53.206;-6.106;2023-02-02T00:27:55;102367.75;;;19.27;49.96
58690;BME280;44470;53.206;-6.106;2023-02-02T00:30:21;102373.09;;;19.27;49.91
58690;BME280;44470;53.206;-6.106;2023-02-02T00:32:46;102365.06;;;19.29;50.00
58690;BME280;44470;53.206;-6.106;2023-02-02T00:35:14;102362.44;;;19.30;49.78
58690;BME280;44470;53.206;-6.106;2023-02-02T00:37:40;102365.97;;;19.26;50.07
58690;BME280;44470;53.206;-6.106;2023-02-02T00:40:07;102367.78;;;19.30;49.93
58690;BME280;44470;53.206;-6.106;2023-02-02T00:42:33;102370.44;;;19.32;50.30
58690;BME280;44470;53.206;-6.106;2023-02-02T00:45:00;102365.97;;;19.28;50.11
58690;BME280;44470;53.206;-6.106;2023-02-02T00:47:46;102358.84;;;19.28;49.96
58690;BME280;44470;53.206;-6.106;2023-02-02T00:50:18;102373.09;;;19.27;50.29
58690;BME280;44470;53.206;-6.106;2023-02-02T00:52:45;102355.31;;;19.29;49.90
58690;BME280;44470;53.206;-6.106;2023-02-02T00:55:15;102358.84;;;19.30;49.94
58690;BME280;44470;53.206;-6.106;2023-02-02T00:57:41;102358.84;;;19.28;50.01
58690;BME280;44470;53.206;-6.106;2023-02-02T01:00:12;102340.16;;;19.30;50.07
58690;BME280;44470;53.206;-6.106;2023-02-02T01:02:38;102335.75;;;19.30;49.80
58690;BME280;44470;53.206;-6.106;2023-02-02T01:05:05;102335.72;;;19.27;50.27
58690;BME280;44470;53.206;-6.106;2023-02-02T01:07:34;102342.84;;;19.28;50.24
58690;BME280;44470;53.206;-6.106;2023-02-02T01:10:00;102333.94;;;19.29;50.11
58690;BME280;44470;53.206;-6.106;2023-02-02T01:12:26;102334.84;;;19.30;50.29
58690;BME280;44470;53.206;-6.106;2023-02-02T01:14:54;102322.41;;;19.30;50.23
58690;BME280;44470;53.206;-6.106;2023-02-02T01:17:20;102333.03;;;19.29;50.17
58690;BME280;44470;53.206;-6.106;2023-02-02T01:19:45;102333.97;;;19.33;50.07
58690;BME280;44470;53.206;-6.106;2023-02-02T01:22:11;102339.31;;;19.33;50.04
58690;BME280;44470;53.206;-6.106;2023-02-02T01:24:38;102341.09;;;19.34;49.85
58690;BME280;44470;53.206;-6.106;2023-02-02T01:27:03;102339.31;;;19.33;49.89
58690;BME280;44470;53.206;-6.106;2023-02-02T01:29:30;102336.63;;;19.34;49.90
58690;BME280;44470;53.206;-6.106;2023-02-02T01:31:56;102339.31;;;19.33;50.21
58690;BME280;44470;53.206;-6.106;2023-02-02T01:34:23;102335.75;;;19.30;50.39
58690;BME280;44470;53.206;-6.106;2023-02-02T01:36:49;102333.06;;;19.32;50.46
58690;BME280;44470;53.206;-6.106;2023-02-02T01:39:14;102339.28;;;19.31;50.15
58690;BME280;44470;53.206;-6.106;2023-02-02T01:41:40;102330.38;;;19.27;50.29
58690;BME280;44470;53.206;-6.106;2023-02-02T01:47:10;102325.06;;;19.30;50.09
58690;BME280;44470;53.206;-6.106;2023-02-02T01:49:37;102324.19;;;19.31;50.31
58690;BME280;44470;53.206;-6.106;2023-02-02T01:52:04;102325.97;;;19.33;50.14
58690;BME280;44470;53.206;-6.106;2023-02-02T01:54:38;102333.06;;;19.32;50.29
58690;BME280;44470;53.206;-6.106;2023-02-02T01:57:08;102337.56;;;19.35;50.19
58690;BME280;44470;53.206;-6.106;2023-02-02T01:59:36;102321.53;;;19.35;50.13
58690;BME280;44470;53.206;-6.106;2023-02-02T02:02:03;102322.38;;;19.32;50.16
58690;BME280;44470;53.206;-6.106;2023-02-02T02:04:30;102323.28;;;19.33;50.42
58690;BME280;44470;53.206;-6.106;2023-02-02T02:06:57;102316.19;;;19.35;50.31
58690;BME280;44470;53.206;-6.106;2023-02-02T02:09:24;102313.53;;;19.35;50.31
58690;BME280;44470;53.206;-6.106;2023-02-02T02:11:54;102309.06;;;19.34;49.94
58690;BME280;44470;53.206;-6.106;2023-02-02T02:14:21;102305.50;;;19.33;50.33
58690;BME280;44470;53.206;-6.106;2023-02-02T02:20:30;102309.03;;;19.30;50.25
58690;BME280;44470;53.206;-6.106;2023-02-02T02:23:26;102314.41;;;19.35;50.33
58690;BME280;44470;53.206;-6.106;2023-02-02T02:27:05;102304.63;;;19.36;50.21
58690;BME280;44470;53.206;-6.106;2023-02-02T02:35:30;102296.59;;;19.33;50.35
58690;BME280;44470;53.206;-6.106;2023-02-02T02:40:41;102295.72;;;19.34;50.25
58690;BME280;44470;53.206;-6.106;2023-02-02T02:43:18;102298.38;;;19.34;50.35
58690;BME280;44470;53.206;-6.106;2023-02-02T02:45:46;102292.16;;;19.35;50.07
58690;BME280;44470;53.206;-6.106;2023-02-02T02:48:13;102289.50;;;19.35;49.94
58690;BME280;44470;53.206;-6.106;2023-02-02T02:50:38;102293.94;;;19.34;50.30
58690;BME280;44470;53.206;-6.106;2023-02-02T02:53:08;102288.63;;;19.37;50.32
58690;BME280;44470;53.206;-6.106;2023-02-02T02:56:04;102290.38;;;19.35;50.15
58690;BME280;44470;53.206;-6.106;2023-02-02T02:58:44;102287.72;;;19.37;49.91
58690;BME280;44470;53.206;-6.106;2023-02-02T03:01:21;102297.53;;;19.36;50.37
58690;BME280;44470;53.206;-6.106;2023-02-02T03:04:09;102297.50;;;19.35;50.14
58690;BME280;44470;53.206;-6.106;2023-02-02T03:06:51;102297.53;;;19.36;50.29
58690;BME280;44470;53.206;-6.106;2023-02-02T03:09:24;102299.28;;;19.36;49.84
58690;BME280;44470;53.206;-6.106;2023-02-02T03:11:54;102305.50;;;19.35;50.13
58690;BME280;44470;53.206;-6.106;2023-02-02T03:14:20;102312.63;;;19.34;50.14
58690;BME280;44470;53.206;-6.106;2023-02-02T03:16:46;102319.75;;;19.37;49.97
58690;BME280;44470;53.206;-6.106;2023-02-02T03:19:11;102315.31;;;19.36;50.30
58690;BME280;44470;53.206;-6.106;2023-02-02T03:21:37;102311.75;;;19.37;50.24
58690;BME280;44470;53.206;-6.106;2023-02-02T03:24:06;102315.34;;;19.40;49.88
58690;BME280;44470;53.206;-6.106;2023-02-02T03:26:31;102319.78;;;19.40;50.11
58690;BME280;44470;53.206;-6.106;2023-02-02T03:28:57;102312.66;;;19.39;50.06
58690;BME280;44470;53.206;-6.106;2023-02-02T03:31:25;102310.88;;;19.38;49.95
58690;BME280;44470;53.206;-6.106;2023-02-02T03:33:51;102320.69;;;19.42;49.93
58690;BME280;44470;53.206;-6.106;2023-02-02T03:36:16;102322.47;;;19.38;50.09
58690;BME280;44470;53.206;-6.106;2023-02-02T03:38:42;102319.75;;;19.37;50.27
58690;BME280;44470;53.206;-6.106;2023-02-02T03:41:08;102310.88;;;19.38;50.22
58690;BME280;44470;53.206;-6.106;2023-02-02T03:43:33;102315.34;;;19.37;50.03
58690;BME280;44470;53.206;-6.106;2023-02-02T03:46:01;102305.53;;;19.38;49.95
58690;BME280;44470;53.206;-6.106;2023-02-02T03:48:28;102305.50;;;19.35;50.15
58690;BME280;44470;53.206;-6.106;2023-02-02T03:50:54;102311.75;;;19.37;50.27
58690;BME280;44470;53.206;-6.106;2023-02-02T03:53:21;102318.91;;;19.39;50.15
58690;BME280;44470;53.206;-6.106;2023-02-02T03:55:46;102318.00;;;19.39;50.02
58690;BME280;44470;53.206;-6.106;2023-02-02T03:58:12;102319.75;;;19.37;50.20
58690;BME280;44470;53.206;-6.106;2023-02-02T04:00:38;102321.56;;;19.38;50.19
58690;BME280;44470;53.206;-6.106;2023-02-02T04:03:04;102318.91;;;19.39;50.06
58690;BME280;44470;53.206;-6.106;2023-02-02T04:05:30;102315.34;;;19.39;49.88
58690;BME280;44470;53.206;-6.106;2023-02-02T04:07:55;102313.56;;;19.41;50.22
58690;BME280;44470;53.206;-6.106;2023-02-02T04:10:21;102321.53;;;19.35;50.12
58690;BME280;44470;53.206;-6.106;2023-02-02T04:12:47;102321.56;;;19.38;49.96
58690;BME280;44470;53.206;-6.106;2023-02-02T04:15:12;102328.69;;;19.39;50.21
58690;BME280;44470;53.206;-6.106;2023-02-02T04:17:38;102323.34;;;19.37;50.28
58690;BME280;44470;53.206;-6.106;2023-02-02T04:20:04;102326.03;;;19.37;50.07
58690;BME280;44470;53.206;-6.106;2023-02-02T04:22:30;102325.13;;;19.38;49.94
58690;BME280;44470;53.206;-6.106;2023-02-02T04:24:56;102323.34;;;19.39;50.28
58690;BME280;44470;53.206;-6.106;2023-02-02T04:27:24;102316.22;;;19.38;50.03
58690;BME280;44470;53.206;-6.106;2023-02-02T04:29:50;102318.00;;;19.39;50.32
58690;BME280;44470;53.206;-6.106;2023-02-02T04:32:17;102319.75;;;19.37;50.07
58690;BME280;44470;53.206;-6.106;2023-02-02T04:34:43;102316.22;;;19.38;50.10
58690;BME280;44470;53.206;-6.106;2023-02-02T04:37:10;102317.13;;;19.38;50.40
58690;BME280;44470;53.206;-6.106;2023-02-02T04:39:36;102316.22;;;19.36;50.13
58690;BME280;44470;53.206;-6.106;2023-02-02T04:42:02;102313.53;;;19.38;50.29
58690;BME280;44470;53.206;-6.106;2023-02-02T04:44:27;102321.53;;;19.35;50.63
58690;BME280;44470;53.206;-6.106;2023-02-02T04:46:53;102318.88;;;19.38;50.19
58690;BME280;44470;53.206;-6.106;2023-02-02T04:49:19;102310.88;;;19.38;50.26
58690;BME280;44470;53.206;-6.106;2023-02-02T04:51:46;102310.00;;;19.39;50.12
58690;BME280;44470;53.206;-6.106;2023-02-02T04:54:12;102301.09;;;19.37;50.34
58690;BME280;44470;53.206;-6.106;2023-02-02T04:56:38;102306.44;;;19.38;49.94
58690;BME280;44470;53.206;-6.106;2023-02-02T04:59:03;102312.66;;;19.39;50.34
58690;BME280;44470;53.206;-6.106;2023-02-02T05:01:29;102301.97;;;19.39;49.90
58690;BME280;44470;53.206;-6.106;2023-02-02T05:03:56;102302.88;;;19.38;50.26
58690;BME280;44470;53.206;-6.106;2023-02-02T05:06:24;102299.31;;;19.37;50.27
58690;BME280;44470;53.206;-6.106;2023-02-02T05:08:50;102302.88;;;19.38;50.14
58690;BME280;44470;53.206;-6.106;2023-02-02T05:11:22;102305.53;;;19.38;50.19
58690;BME280;44470;53.206;-6.106;2023-02-02T05:13:50;102306.47;;;19.41;49.87
58690;BME280;44470;53.206;-6.106;2023-02-02T05:16:21;102311.75;;;19.37;50.30
58690;BME280;44470;53.206;-6.106;2023-02-02T05:18:54;102303.75;;;19.37;50.08
58690;BME280;44470;53.206;-6.106;2023-02-02T05:21:21;102301.97;;;19.36;50.17
58690;BME280;44470;53.206;-6.106;2023-02-02T05:23:47;102304.66;;;19.39;50.02
58690;BME280;44470;53.206;-6.106;2023-02-02T05:26:21;102310.88;;;19.38;49.97
58690;BME280;44470;53.206;-6.106;2023-02-02T05:28:48;102309.09;;;19.37;50.11
58690;BME280;44470;53.206;-6.106;2023-02-02T05:31:13;102314.44;;;19.40;49.84
58690;BME280;44470;53.206;-6.106;2023-02-02T05:33:39;102318.03;;;19.40;50.25
58690;BME280;44470;53.206;-6.106;2023-02-02T05:36:05;102306.44;;;19.40;50.02
58690;BME280;44470;53.206;-6.106;2023-02-02T05:38:31;102305.53;;;19.38;50.28
58690;BME280;44470;53.206;-6.106;2023-02-02T05:40:57;102312.69;;;19.40;50.13
58690;BME280;44470;53.206;-6.106;2023-02-02T05:43:30;102306.41;;;19.37;50.49
58690;BME280;44470;53.206;-6.106;2023-02-02T05:45:56;102303.75;;;19.37;50.10
58690;BME280;44470;53.206;-6.106;2023-02-02T05:48:25;102293.06;;;19.37;50.26
58690;BME280;44470;53.206;-6.106;2023-02-02T05:51:21;102299.34;;;19.40;50.01
58690;BME280;44470;53.206;-6.106;2023-02-02T05:53:48;102289.53;;;19.38;49.99
58690;BME280;44470;53.206;-6.106;2023-02-02T05:56:14;102283.31;;;19.37;49.97
58690;BME280;44470;53.206;-6.106;2023-02-02T05:58:41;102296.63;;;19.39;50.11
58690;BME280;44470;53.206;-6.106;2023-02-02T06:01:11;102288.63;;;19.39;50.09
58690;BME280;44470;53.206;-6.106;2023-02-02T06:03:37;102293.06;;;19.37;50.21
58690;BME280;44470;53.206;-6.106;2023-02-02T06:06:03;102293.09;;;19.38;49.89
58690;BME280;44470;53.206;-6.106;2023-02-02T06:08:29;102299.31;;;19.39;50.09
58690;BME280;44470;53.206;-6.106;2023-02-02T06:10:54;102290.44;;;19.41;49.96
58690;BME280;44470;53.206;-6.106;2023-02-02T06:13:21;102308.25;;;19.42;50.10
58690;BME280;44470;53.206;-6.106;2023-02-02T06:15:47;102301.09;;;19.37;50.11
58690;BME280;44470;53.206;-6.106;2023-02-02T06:18:15;102306.44;;;19.38;50.25
58690;BME280;44470;53.206;-6.106;2023-02-02T06:20:41;102311.78;;;19.38;50.27
58690;BME280;44470;53.206;-6.106;2023-02-02T06:23:06;102303.75;;;19.37;50.29
58690;BME280;44470;53.206;-6.106;2023-02-02T06:25:32;102302.91;;;19.39;50.11
58690;BME280;44470;53.206;-6.106;2023-02-02T06:27:59;102293.09;;;19.40;50.11
58690;BME280;44470;53.206;-6.106;2023-02-02T06:30:26;102303.78;;;19.40;50.33
58690;BME280;44470;53.206;-6.106;2023-02-02T06:32:52;102291.31;;;19.39;50.03
58690;BME280;44470;53.206;-6.106;2023-02-02T06:35:18;102294.88;;;19.41;50.15
58690;BME280;44470;53.206;-6.106;2023-02-02T06:37:44;102296.66;;;19.37;50.26
58690;BME280;44470;53.206;-6.106;2023-02-02T06:40:10;102293.06;;;19.37;50.35
58690;BME280;44470;53.206;-6.106;2023-02-02T06:42:38;102306.38;;;19.35;50.49
58690;BME280;44470;53.206;-6.106;2023-02-02T06:45:05;102293.06;;;19.37;50.19
58690;BME280;44470;53.206;-6.106;2023-02-02T06:47:33;102297.53;;;19.38;50.46
58690;BME280;44470;53.206;-6.106;2023-02-02T06:49:59;102300.19;;;19.38;49.98
58690;BME280;44470;53.206;-6.106;2023-02-02T06:52:25;102298.41;;;19.37;50.29
58690;BME280;44470;53.206;-6.106;2023-02-02T06:54:51;102296.63;;;19.36;50.28
58690;BME280;44470;53.206;-6.106;2023-02-02T06:57:16;102305.56;;;19.44;50.20
58690;BME280;44470;53.206;-6.106;2023-02-02T06:59:42;102298.41;;;19.37;50.19
58690;BME280;44470;53.206;-6.106;2023-02-02T07:02:10;102301.13;;;19.41;49.97
58690;BME280;44470;53.206;-6.106;2023-02-02T07:04:36;102299.34;;;19.42;49.93
58690;BME280;44470;53.206;-6.106;2023-02-02T07:07:01;102303.78;;;19.38;50.19
58690;BME280;44470;53.206;-6.106;2023-02-02T07:09:27;102299.31;;;19.39;49.94
58690;BME280;44470;53.206;-6.106;2023-02-02T07:11:52;102297.53;;;19.38;50.11
58690;BME280;44470;53.206;-6.106;2023-02-02T07:14:18;102306.44;;;19.40;49.81
58690;BME280;44470;53.206;-6.106;2023-02-02T07:16:43;102307.31;;;19.37;49.99
58690;BME280;44470;53.206;-6.106;2023-02-02T07:19:09;102295.75;;;19.38;50.16
58690;BME280;44470;53.206;-6.106;2023-02-02T07:21:34;102294.91;;;19.42;50.06
58690;BME280;44470;53.206;-6.106;2023-02-02T07:24:01;102293.13;;;19.41;50.07
58690;BME280;44470;53.206;-6.106;2023-02-02T07:26:27;102285.97;;;19.39;50.20
58690;BME280;44470;53.206;-6.106;2023-02-02T07:28:54;102286.84;;;19.38;50.42
58690;BME280;44470;53.206;-6.106;2023-02-02T07:31:22;102288.63;;;19.37;49.96
58690;BME280;44470;53.206;-6.106;2023-02-02T07:33:49;102276.19;;;19.41;50.02
58690;BME280;44470;53.206;-6.106;2023-02-02T07:36:17;102268.16;;;19.38;50.06
58690;BME280;44470;53.206;-6.106;2023-02-02T07:38:47;102267.31;;;19.40;50.12
58690;BME280;44470;53.206;-6.106;2023-02-02T07:41:14;102287.75;;;19.38;50.24
58690;BME280;44470;53.206;-6.106;2023-02-02T07:43:41;102272.63;;;19.40;50.05
58690;BME280;44470;53.206;-6.106;2023-02-02T07:46:07;102291.31;;;19.40;50.15
58690;BME280;44470;53.206;-6.106;2023-02-02T07:48:34;102283.31;;;19.42;49.84
58690;BME280;44470;53.206;-6.106;2023-02-02T07:51:05;102282.41;;;19.40;50.09
58690;BME280;44470;53.206;-6.106;2023-02-02T07:53:32;102279.75;;;19.38;49.89
58690;BME280;44470;53.206;-6.106;2023-02-02T07:56:09;102276.22;;;19.42;49.67
58690;BME280;44470;53.206;-6.106;2023-02-02T07:58:35;102280.66;;;19.42;50.21
58690;BME280;44470;53.206;-6.106;2023-02-02T08:01:06;102295.78;;;19.41;49.85
58690;BME280;44470;53.206;-6.106;2023-02-02T08:03:33;102300.22;;;19.41;50.21
58690;BME280;44470;53.206;-6.106;2023-02-02T08:05:59;102308.22;;;19.41;50.05
58690;BME280;44470;53.206;-6.106;2023-02-02T08:08:25;102309.16;;;19.46;49.94
58690;BME280;44470;53.206;-6.106;2023-02-02T08:10:52;102302.91;;;19.44;49.78
58690;BME280;44470;53.206;-6.106;2023-02-02T08:13:18;102306.50;;;19.48;49.40
58690;BME280;44470;53.206;-6.106;2023-02-02T08:15:44;102304.75;;;19.50;49.69
58690;BME280;44470;53.206;-6.106;2023-02-02T08:18:12;102307.34;;;19.42;49.69
58690;BME280;44470;53.206;-6.106;2023-02-02T08:20:38;102316.28;;;19.47;49.63
58690;BME280;44470;53.206;-6.106;2023-02-02T08:23:03;102316.28;;;19.45;49.50
58690;BME280;44470;53.206;-6.106;2023-02-02T08:25:29;102303.81;;;19.46;49.33
58690;BME280;44470;53.206;-6.106;2023-02-02T08:27:55;102311.81;;;19.44;49.83
58690;BME280;44470;53.206;-6.106;2023-02-02T08:30:26;102310.97;;;19.49;49.83
58690;BME280;44470;53.206;-6.106;2023-02-02T08:32:51;102314.50;;;19.46;49.38
58690;BME280;44470;53.206;-6.106;2023-02-02T08:35:17;102303.81;;;19.46;49.83
58690;BME280;44470;53.206;-6.106;2023-02-02T08:37:46;102318.03;;;19.45;49.89
58690;BME280;44470;53.206;-6.106;2023-02-02T08:40:13;102309.13;;;19.43;49.69
58690;BME280;44470;53.206;-6.106;2023-02-02T08:42:38;102310.91;;;19.44;49.56
58690;BME280;44470;53.206;-6.106;2023-02-02T08:45:04;102321.63;;;19.47;49.78
58690;BME280;44470;53.206;-6.106;2023-02-02T08:47:30;102318.97;;;19.45;49.66
58690;BME280;44470;53.206;-6.106;2023-02-02T08:49:56;102313.59;;;19.42;49.94
58690;BME280;44470;53.206;-6.106;2023-02-02T08:52:21;102320.69;;;19.40;49.94
58690;BME280;44470;53.206;-6.106;2023-02-02T08:54:47;102327.81;;;19.41;49.94
58690;BME280;44470;53.206;-6.106;2023-02-02T08:57:12;102326.94;;;19.44;49.91
58690;BME280;44470;53.206;-6.106;2023-02-02T08:59:38;102339.41;;;19.43;49.70
58690;BME280;44470;53.206;-6.106;2023-02-02T09:02:04;102334.94;;;19.41;49.83
58690;BME280;44470;53.206;-6.106;2023-02-02T09:04:29;102334.94;;;19.44;49.65
58690;BME280;44470;53.206;-6.106;2023-02-02T09:06:55;102333.19;;;19.44;49.58
58690;BME280;44470;53.206;-6.106;2023-02-02T09:09:20;102336.72;;;19.40;50.00
58690;BME280;44470;53.206;-6.106;2023-02-02T09:11:46;102333.16;;;19.43;50.03
58690;BME280;44470;53.206;-6.106;2023-02-02T09:14:12;102354.53;;;19.43;49.79
58690;BME280;44470;53.206;-6.106;2023-02-02T09:16:38;102350.94;;;19.41;50.01
58690;BME280;44470;53.206;-6.106;2023-02-02T09:19:04;102353.59;;;19.38;50.09
58690;BME280;44470;53.206;-6.106;2023-02-02T09:21:30;102350.03;;;19.39;50.09
58690;BME280;44470;53.206;-6.106;2023-02-02T09:24:08;102351.81;;;19.37;50.14
58690;BME280;44470;53.206;-6.106;2023-02-02T09:26:34;102350.03;;;19.39;50.12
58690;BME280;44470;53.206;-6.106;2023-02-02T09:29:04;102342.03;;;19.37;49.85
58690;BME280;44470;53.206;-6.106;2023-02-02T09:31:32;102348.25;;;19.38;50.12
58690;BME280;44470;53.206;-6.106;2023-02-02T09:34:00;102355.38;;;19.39;50.34
58690;BME280;44470;53.206;-6.106;2023-02-02T09:36:26;102355.38;;;19.39;50.15
58690;BME280;44470;53.206;-6.106;2023-02-02T09:38:52;102343.78;;;19.37;50.41
58690;BME280;44470;53.206;-6.106;2023-02-02T09:52:36;102338.50;;;19.41;50.03
58690;BME280;44470;53.206;-6.106;2023-02-02T09:57:54;102355.38;;;19.39;50.06
58690;BME280;44470;53.206;-6.106;2023-02-02T10:00:47;102363.41;;;19.37;50.18
58690;BME280;44470;53.206;-6.106;2023-02-02T10:03:23;102359.81;;;19.37;50.51
58690;BME280;44470;53.206;-6.106;2023-02-02T10:08:48;102348.28;;;19.39;50.01
58690;BME280;44470;53.206;-6.106;2023-02-02T10:14:27;102337.56;;;19.38;49.92
58690;BME280;44470;53.206;-6.106;2023-02-02T10:16:56;102332.25;;;19.36;50.37
58690;BME280;44470;53.206;-6.106;2023-02-02T10:19:25;102336.63;;;19.34;50.50
58690;BME280;44470;53.206;-6.106;2023-02-02T10:22:04;102326.88;;;19.35;50.59
58690;BME280;44470;53.206;-6.106;2023-02-02T10:28:05;102340.19;;;19.33;50.58
58690;BME280;44470;53.206;-6.106;2023-02-02T10:30:45;102344.66;;;19.33;50.43
58690;BME280;44470;53.206;-6.106;2023-02-02T10:33:20;102340.19;;;19.33;50.21
58690;BME280;44470;53.206;-6.106;2023-02-02T10:36:08;102337.56;;;19.35;49.99
58690;BME280;44470;53.206;-6.106;2023-02-02T10:41:29;102338.44;;;19.35;50.46
58690;BME280;44470;53.206;-6.106;2023-02-02T10:46:52;102348.22;;;19.35;50.04
58690;BME280;44470;53.206;-6.106;2023-02-02T10:49:27;102341.97;;;19.34;50.38
58690;BME280;44470;53.206;-6.106;2023-02-02T10:57:21;102337.53;;;19.31;50.30
58690;BME280;44470;53.206;-6.106;2023-02-02T11:02:53;102352.66;;;19.34;50.31
58690;BME280;44470;53.206;-6.106;2023-02-02T11:05:22;102351.78;;;19.34;50.36
58690;BME280;44470;53.206;-6.106;2023-02-02T11:08:19;102362.47;;;19.34;50.27
58690;BME280;44470;53.206;-6.106;2023-02-02T11:10:49;102365.13;;;19.34;50.31
58690;BME280;44470;53.206;-6.106;2023-02-02T11:13:30;102372.22;;;19.33;50.36
58690;BME280;44470;53.206;-6.106;2023-02-02T11:16:22;102390.06;;;19.36;50.47
58690;BME280;44470;53.206;-6.106;2023-02-02T11:18:51;102370.47;;;19.35;50.37
58690;BME280;44470;53.206;-6.106;2023-02-02T11:21:23;102384.69;;;19.34;50.46
58690;BME280;44470;53.206;-6.106;2023-02-02T11:24:02;102388.25;;;19.33;50.24
58690;BME280;44470;53.206;-6.106;2023-02-02T11:26:51;102397.16;;;19.35;50.40
58690;BME280;44470;53.206;-6.106;2023-02-02T11:32:28;102400.72;;;19.33;50.40
58690;BME280;44470;53.206;-6.106;2023-02-02T11:37:35;102393.59;;;19.33;50.57
58690;BME280;44470;53.206;-6.106;2023-02-02T11:43:33;102389.16;;;19.35;50.07
58690;BME280;44470;53.206;-6.106;2023-02-02T11:46:04;102380.25;;;19.35;50.22
58690;BME280;44470;53.206;-6.106;2023-02-02T11:48:37;102372.22;;;19.33;50.54
58690;BME280;44470;53.206;-6.106;2023-02-02T11:51:04;102370.47;;;19.34;50.54
58690;BME280;44470;53.206;-6.106;2023-02-02T11:53:44;102367.81;;;19.34;50.21
58690;BME280;44470;53.206;-6.106;2023-02-02T11:56:22;102374.94;;;19.35;50.48
58690;BME280;44470;53.206;-6.106;2023-02-02T11:58:55;102369.59;;;19.35;50.63
58690;BME280;44470;53.206;-6.106;2023-02-02T12:01:37;102359.78;;;19.34;50.63
58690;BME280;44470;53.206;-6.106;2023-02-02T12:06:39;102348.25;;;19.36;50.32
58690;BME280;44470;53.206;-6.106;2023-02-02T12:09:14;102345.59;;;19.38;50.33
58690;BME280;44470;53.206;-6.106;2023-02-02T12:51:02;102323.31;;;19.36;50.54
58690;BME280;44470;53.206;-6.106;2023-02-02T12:54:17;102327.75;;;19.35;50.72
58690;BME280;44470;53.206;-6.106;2023-02-02T13:07:35;102332.25;;;19.36;50.50
58690;BME280;44470;53.206;-6.106;2023-02-02T13:15:32;102334.03;;;19.39;50.60
58690;BME280;44470;53.206;-6.106;2023-02-02T13:18:18;102325.13;;;19.40;50.52
58690;BME280;44470;53.206;-6.106;2023-02-02T13:20:48;102316.25;;;19.41;50.50
58690;BME280;44470;53.206;-6.106;2023-02-02T13:23:29;102310.91;;;19.39;50.53
58690;BME280;44470;53.206;-6.106;2023-02-02T13:31:15;102302.91;;;19.39;50.28
58690;BME280;44470;53.206;-6.106;2023-02-02T13:33:44;102309.13;;;19.38;50.56
58690;BME280;44470;53.206;-6.106;2023-02-02T13:36:27;102304.66;;;19.37;50.81
58690;BME280;44470;53.206;-6.106;2023-02-02T13:39:02;102300.22;;;19.39;50.53
58690;BME280;44470;53.206;-6.106;2023-02-02T13:41:35;102299.34;;;19.40;50.78
58690;BME280;44470;53.206;-6.106;2023-02-02T13:44:08;102306.47;;;19.41;50.62
58690;BME280;44470;53.206;-6.106;2023-02-02T13:49:37;102268.19;;;19.41;50.47
58690;BME280;44470;53.206;-6.106;2023-02-02T14:00:16;102257.53;;;19.42;50.83
58690;BME280;44470;53.206;-6.106;2023-02-02T14:02:47;102278.88;;;19.42;50.60
58690;BME280;44470;53.206;-6.106;2023-02-02T14:05:29;102276.22;;;19.44;50.60
58690;BME280;44470;53.206;-6.106;2023-02-02T14:08:06;102253.06;;;19.41;50.69
58690;BME280;44470;53.206;-6.106;2023-02-02T14:13:25;102259.28;;;19.42;50.83
58690;BME280;44470;53.206;-6.106;2023-02-02T14:16:42;102250.38;;;19.43;50.42
58690;BME280;44470;53.206;-6.106;2023-02-02T14:27:02;102256.63;;;19.40;50.78
58690;BME280;44470;53.206;-6.106;2023-02-02T14:34:45;102265.53;;;19.44;50.54
58690;BME280;44470;53.206;-6.106;2023-02-02T14:45:46;102262.84;;;19.44;50.64
58690;BME280;44470;53.206;-6.106;2023-02-02T14:48:17;102250.41;;;19.46;50.74
58690;BME280;44470;53.206;-6.106;2023-02-02T14:50:50;102247.75;;;19.44;50.46
58690;BME280;44470;53.206;-6.106;2023-02-02T14:53:38;102273.53;;;19.44;50.74
58690;BME280;44470;53.206;-6.106;2023-02-02T14:56:10;102272.66;;;19.43;50.43
58690;BME280;44470;53.206;-6.106;2023-02-02T15:06:40;102294.91;;;19.44;50.80
58690;BME280;44470;53.206;-6.106;2023-02-02T15:14:39;102260.19;;;19.44;50.68
58690;BME280;44470;53.206;-6.106;2023-02-02T15:31:34;102262.84;;;19.44;50.90
58690;BME280;44470;53.206;-6.106;2023-02-02T15:36:43;102278.00;;;19.43;50.39
58690;BME280;44470;53.206;-6.106;2023-02-02T15:39:16;102287.78;;;19.43;50.82
58690;BME280;44470;53.206;-6.106;2023-02-02T15:41:45;102310.91;;;19.44;50.82
58690;BME280;44470;53.206;-6.106;2023-02-02T15:44:26;102313.59;;;19.44;50.96
58690;BME280;44470;53.206;-6.106;2023-02-02T15:46:54;102316.25;;;19.42;50.61
58690;BME280;44470;53.206;-6.106;2023-02-02T15:49:32;102320.69;;;19.42;50.57
58690;BME280;44470;53.206;-6.106;2023-02-02T15:52:06;102315.34;;;19.40;50.78
58690;BME280;44470;53.206;-6.106;2023-02-02T15:54:35;102328.69;;;19.39;50.84
58690;BME280;44470;53.206;-6.106;2023-02-02T15:57:28;102323.38;;;19.42;50.88
58690;BME280;44470;53.206;-6.106;2023-02-02T15:59:54;102316.25;;;19.41;50.80
58690;BME280;44470;53.206;-6.106;2023-02-02T16:02:37;102306.47;;;19.41;50.56
58690;BME280;44470;53.206;-6.106;2023-02-02T16:05:46;102308.22;;;19.39;50.41